createdAt,value
2019-06-08T00:02:18.480Z,18.10
2019-06-08T00:07:24.735Z,18.17
2019-06-08T00:12:30.685Z,18.49
2019-06-08T00:17:39.099Z,18.50
2019-06-08T00:22:45.394Z,18.43
2019-06-08T00:27:51.362Z,18.59
2019-06-08T00:32:57.286Z,18.59
2019-06-08T00:38:03.718Z,18.66
2019-06-08T00:43:09.781Z,18.76
2019-06-08T00:48:16.745Z,18.84
2019-06-08T00:53:25.308Z,18.78
2019-06-08T00:58:31.558Z,18.75
2019-06-08T01:03:37.457Z,18.65
2019-06-08T01:08:43.324Z,18.46
2019-06-08T01:13:49.156Z,18.37
2019-06-08T01:18:56.091Z,18.44
2019-06-08T01:24:02.368Z,18.59
2019-06-08T01:29:08.544Z,18.56
2019-06-08T01:34:14.507Z,18.33
2019-06-08T01:39:21.133Z,18.29
2019-06-08T01:44:28.071Z,18.33
2019-06-08T01:49:34.167Z,18.48
2019-06-08T01:54:40.340Z,18.50
2019-06-08T01:59:46.209Z,18.55
2019-06-08T02:04:52.280Z,18.50
2019-06-08T02:09:58.258Z,18.66
2019-06-08T02:15:05.393Z,18.62
2019-06-08T02:20:12.450Z,18.48
2019-06-08T02:25:20.876Z,18.52
2019-06-08T02:30:31.224Z,18.33
2019-06-08T02:35:38.045Z,18.33
2019-06-08T02:40:44.116Z,18.29
2019-06-08T02:45:50.431Z,18.41
2019-06-08T02:50:58.608Z,18.25
2019-06-08T02:56:05.895Z,18.40
2019-06-08T03:01:12.258Z,18.39
2019-06-08T03:06:22.156Z,18.39
2019-06-08T03:11:28.642Z,18.47
2019-06-08T03:16:35.770Z,18.45
2019-06-08T03:21:42.549Z,18.42
2019-06-08T03:26:48.610Z,18.45
2019-06-08T03:31:56.912Z,18.54
2019-06-08T03:37:02.896Z,18.44
2019-06-08T03:42:08.867Z,18.62
2019-06-08T03:47:14.846Z,18.89
2019-06-08T03:52:20.910Z,18.99
2019-06-08T03:57:28.463Z,18.92
2019-06-08T04:02:34.563Z,18.89
2019-06-08T04:07:42.091Z,19.06
2019-06-08T04:12:48.081Z,19.30
2019-06-08T04:17:54.261Z,19.24
2019-06-08T04:23:00.212Z,19.26
2019-06-08T04:28:06.115Z,19.23
2019-06-08T04:33:12.402Z,19.30
2019-06-08T04:38:18.680Z,19.19
2019-06-08T04:43:26.282Z,19.11
2019-06-08T04:48:32.533Z,18.92
2019-06-08T04:53:38.725Z,19.04
2019-06-08T04:58:46.834Z,19.30
2019-06-08T05:03:53.104Z,19.74
2019-06-08T05:08:59.478Z,19.61
2019-06-08T05:14:05.903Z,19.60
2019-06-08T05:19:12.036Z,19.78
2019-06-08T05:24:18.150Z,20.02
2019-06-08T05:29:24.291Z,20.44
2019-06-08T05:34:30.163Z,20.68
2019-06-08T05:39:36.740Z,20.95
2019-06-08T05:44:43.623Z,20.70
2019-06-08T05:49:50.348Z,20.69
2019-06-08T05:54:56.718Z,21.13
2019-06-08T06:00:08.799Z,20.86
2019-06-08T06:05:12.859Z,21.02
2019-06-08T06:10:19.210Z,21.39
2019-06-08T06:15:25.440Z,21.80
2019-06-08T06:20:31.583Z,22.38
2019-06-08T06:25:38.376Z,22.64
2019-06-08T06:30:46.599Z,22.94
2019-06-08T06:35:52.768Z,23.06
2019-06-08T06:40:59.070Z,23.58
2019-06-08T06:46:05.325Z,24.84
2019-06-08T06:51:25.121Z,24.73
2019-06-08T06:56:20.028Z,24.80
2019-06-08T07:01:26.715Z,23.91
2019-06-08T07:06:32.792Z,25.41
2019-06-08T07:11:39.261Z,26.95
2019-06-08T07:16:45.831Z,27.04
2019-06-08T07:21:53.187Z,25.91
2019-06-08T07:27:00.144Z,25.44
2019-06-08T07:32:06.712Z,25.41
2019-06-08T07:37:13.272Z,25.31
2019-06-08T07:42:19.800Z,25.08
2019-06-08T07:47:26.534Z,24.90
2019-06-08T07:52:32.879Z,24.94
2019-06-08T07:57:39.458Z,25.02
2019-06-08T08:02:45.629Z,24.97
2019-06-08T08:07:54.438Z,24.99
2019-06-08T08:13:01.166Z,25.05
2019-06-08T08:18:07.248Z,25.32
2019-06-08T08:23:13.414Z,25.50
2019-06-08T08:28:19.678Z,25.72
2019-06-08T08:33:27.673Z,25.97
2019-06-08T08:38:33.738Z,26.18
2019-06-08T08:43:40.052Z,26.04
2019-06-08T08:48:48.604Z,26.01
2019-06-08T08:53:58.516Z,25.85
2019-06-08T08:59:02.906Z,26.45
2019-06-08T09:04:09.706Z,26.41
2019-06-08T09:09:18.803Z,26.76
2019-06-08T09:14:24.690Z,27.00
2019-06-08T09:19:30.866Z,27.14
2019-06-08T09:24:38.982Z,26.66
2019-06-08T09:29:47.747Z,26.34
2019-06-08T09:34:54.290Z,26.67
2019-06-08T09:40:02.236Z,26.70
2019-06-08T09:45:09.299Z,27.16
2019-06-08T09:50:18.509Z,27.50
2019-06-08T09:55:24.220Z,27.30
2019-06-08T10:00:30.398Z,27.06
2019-06-08T10:05:38.687Z,27.34
2019-06-08T10:10:45.306Z,27.81
2019-06-08T10:15:51.809Z,27.79
2019-06-08T10:21:00.660Z,27.37
2019-06-08T10:26:06.579Z,27.37
2019-06-08T10:31:12.994Z,27.85
2019-06-08T10:36:19.149Z,27.68
2019-06-08T10:41:27.637Z,27.49
2019-06-08T10:46:33.242Z,28.24
2019-06-08T10:51:40.936Z,27.94
2019-06-08T10:56:48.574Z,27.78
2019-06-08T11:01:55.047Z,28.22
2019-06-08T11:07:06.976Z,28.22
2019-06-08T11:12:14.696Z,28.08
2019-06-08T11:17:17.939Z,28.37
2019-06-08T11:22:24.387Z,28.26
2019-06-08T11:27:30.584Z,28.40
2019-06-08T11:32:38.332Z,28.23
2019-06-08T11:37:44.773Z,28.13
2019-06-08T11:42:50.720Z,28.57
2019-06-08T11:47:58.391Z,28.53
2019-06-08T11:53:05.282Z,28.76
2019-06-08T11:58:13.820Z,29.04
2019-06-08T12:03:20.720Z,29.37
2019-06-08T12:08:28.466Z,29.68
2019-06-08T12:13:34.886Z,29.26
2019-06-08T12:18:42.111Z,29.39
2019-06-08T12:23:48.418Z,30.05
2019-06-08T12:28:54.578Z,29.73
2019-06-08T12:34:01.263Z,28.45
2019-06-08T12:39:08.252Z,27.57
2019-06-08T12:44:15.558Z,24.82
2019-06-08T12:49:22.144Z,23.64
2019-06-08T12:54:28.564Z,21.16
2019-06-08T12:59:35.208Z,21.16
2019-06-08T13:04:41.286Z,21.24
2019-06-08T13:09:48.297Z,21.36
2019-06-08T13:14:54.655Z,21.62
2019-06-08T13:20:00.723Z,21.88
2019-06-08T13:25:21.151Z,22.35
2019-06-08T13:30:22.525Z,22.55
2019-06-08T13:35:27.413Z,22.98
2019-06-08T13:40:33.618Z,23.04
2019-06-08T13:45:39.998Z,23.10
2019-06-08T13:50:46.616Z,22.86
2019-06-08T13:55:56.719Z,23.00
2019-06-08T14:01:00.648Z,22.87
2019-06-08T14:06:07.684Z,23.02
2019-06-08T14:11:14.577Z,23.38
2019-06-08T14:16:23.360Z,23.98
2019-06-08T14:21:32.830Z,23.53
2019-06-08T14:26:37.651Z,23.59
2019-06-08T14:31:43.231Z,23.89
2019-06-08T14:36:49.375Z,23.79
2019-06-08T14:41:57.681Z,23.73
2019-06-08T14:47:05.237Z,23.12
2019-06-08T14:52:11.393Z,23.19
2019-06-08T14:57:18.203Z,23.69
2019-06-08T15:02:28.219Z,23.83
2019-06-08T15:07:33.868Z,23.61
2019-06-08T15:12:41.580Z,23.29
2019-06-08T15:17:48.052Z,23.74
2019-06-08T15:22:54.198Z,24.23
2019-06-08T15:28:01.306Z,23.90
2019-06-08T15:33:07.706Z,23.30
2019-06-08T15:38:14.391Z,23.52
2019-06-08T15:43:21.577Z,23.66
2019-06-08T15:48:29.427Z,23.43
2019-06-08T15:53:34.454Z,22.85
2019-06-08T15:58:40.651Z,22.90
2019-06-08T16:03:48.236Z,22.80
2019-06-08T16:08:54.318Z,22.70
2019-06-08T16:14:00.529Z,22.47
2019-06-08T16:19:06.710Z,22.34
2019-06-08T16:24:12.738Z,22.23
2019-06-08T16:29:19.171Z,22.42
2019-06-08T16:34:25.699Z,22.38
2019-06-08T16:39:32.814Z,22.12
2019-06-08T16:44:39.069Z,21.69
2019-06-08T16:49:45.303Z,21.64
2019-06-08T16:54:51.151Z,21.22
2019-06-08T16:59:57.165Z,21.02
2019-06-08T17:05:05.169Z,20.88
2019-06-08T17:10:11.613Z,20.74
2019-06-08T17:15:18.236Z,20.57
2019-06-08T17:20:24.387Z,20.40
2019-06-08T17:25:30.725Z,20.30
2019-06-08T17:30:37.637Z,20.19
2019-06-08T17:35:44.317Z,20.03
2019-06-08T17:40:50.689Z,19.99
2019-06-08T17:45:56.726Z,19.99
2019-06-08T17:51:02.870Z,20.07
2019-06-08T17:56:10.003Z,20.00
2019-06-08T18:01:16.373Z,19.79
2019-06-08T18:06:23.530Z,20.02
2019-06-08T18:11:30.020Z,19.73
2019-06-08T18:16:39.386Z,19.41
2019-06-08T18:21:45.206Z,19.25
2019-06-08T18:26:53.441Z,19.07
2019-06-08T18:31:59.618Z,18.80
2019-06-08T18:37:08.410Z,18.61
2019-06-08T18:42:14.383Z,18.43
2019-06-08T18:47:20.403Z,18.65
2019-06-08T18:52:28.224Z,18.78
2019-06-08T18:57:34.141Z,18.75
2019-06-08T19:02:43.745Z,18.68
2019-06-08T19:07:52.594Z,18.56
2019-06-08T19:12:58.673Z,18.59
2019-06-08T19:18:08.202Z,18.41
2019-06-08T19:23:14.456Z,18.18
2019-06-08T19:28:35.256Z,17.94
2019-06-08T19:33:29.114Z,17.80
2019-06-08T19:38:35.452Z,17.62
2019-06-08T19:43:42.133Z,17.76
2019-06-08T19:48:54.298Z,17.55
2019-06-08T19:53:58.247Z,17.30
2019-06-08T19:59:05.104Z,17.17
2019-06-08T20:04:11.455Z,17.12
2019-06-08T20:09:17.535Z,17.06
2019-06-08T20:14:23.599Z,16.98
2019-06-08T20:19:29.646Z,16.87
2019-06-08T20:24:37.735Z,16.73
2019-06-08T20:29:43.343Z,16.72
2019-06-08T20:34:51.159Z,16.88
2019-06-08T20:40:09.724Z,16.95
2019-06-08T20:45:08.190Z,16.89
2019-06-08T20:50:14.518Z,16.74
2019-06-08T20:55:20.480Z,16.53
2019-06-08T21:00:26.557Z,16.53
2019-06-08T21:05:32.528Z,16.52
2019-06-08T21:10:38.602Z,16.44
2019-06-08T21:15:46.588Z,16.42
2019-06-08T21:20:53.121Z,16.22
2019-06-08T21:26:00.254Z,15.97
2019-06-08T21:31:08.534Z,15.83
2019-06-08T21:36:14.697Z,15.82
2019-06-08T21:41:20.526Z,15.62
2019-06-08T21:46:27.497Z,15.45
2019-06-08T21:51:34.043Z,15.36
2019-06-08T21:56:40.113Z,15.20
2019-06-08T22:01:50.383Z,15.02
2019-06-08T22:06:59.031Z,14.78
2019-06-08T22:12:03.720Z,14.68
2019-06-08T22:17:09.779Z,14.74
2019-06-08T22:22:15.807Z,14.61
2019-06-08T22:27:21.878Z,14.30
2019-06-08T22:32:27.880Z,13.89
2019-06-08T22:37:34.123Z,13.95
2019-06-08T22:42:39.893Z,14.03
2019-06-08T22:47:47.799Z,14.10
2019-06-08T22:52:55.100Z,14.14
2019-06-08T22:58:01.904Z,14.14
2019-06-08T23:03:08.999Z,14.00
2019-06-08T23:08:17.399Z,14.14
2019-06-08T23:13:22.685Z,14.04
2019-06-08T23:18:28.656Z,13.95
2019-06-08T23:23:34.943Z,13.87
2019-06-08T23:28:40.901Z,13.79
2019-06-08T23:33:48.418Z,13.69
2019-06-08T23:38:54.938Z,13.65
2019-06-08T23:44:01.456Z,13.63
2019-06-08T23:49:08.989Z,12.69
2019-06-08T23:54:18.423Z,12.87
2019-06-08T23:59:23.802Z,12.60
